Wetterdaten: Woche 27.02.23 - 05.03.23 (KW9)
Datum Zeit Temp. A. Feuchte A. Luftdruck Regen Wind Richtung Taupunkt Windchill
27.02.2023 00:00 -5,3 C 82 % 1030 hPa 0,0 l/m 0,0 km/h (0 Bft) O-SO -7,8 C -5,3 C
27.02.2023 01:00 -6,0 C 83 % 1030 hPa 0,0 l/m 0,0 km/h (0 Bft) O-SO -8,4 C -6,0 C
27.02.2023 02:00 -6,1 C 84 % 1030 hPa 0,0 l/m 0,0 km/h (0 Bft) O-SO -8,4 C -6,1 C
27.02.2023 03:00 -5,8 C 85 % 1030 hPa 0,0 l/m 0,0 km/h (0 Bft) N-NO -7,9 C -5,8 C
27.02.2023 04:00 -5,9 C 86 % 1030 hPa 0,0 l/m 0,0 km/h (0 Bft) O-NO -7,9 C -5,9 C
27.02.2023 05:00 -6,0 C 86 % 1030 hPa 0,0 l/m 0,0 km/h (0 Bft) O-NO -7,9 C -6,0 C
27.02.2023 06:00 -5,3 C 86 % 1031 hPa 0,0 l/m 0,0 km/h (0 Bft) O-NO -7,2 C -5,3 C
27.02.2023 07:00 -4,5 C 87 % 1031 hPa 0,0 l/m 0,0 km/h (0 Bft) O-NO -6,3 C -4,5 C
27.02.2023 08:00 -4,0 C 87 % 1032 hPa 0,0 l/m 0,0 km/h (0 Bft) O-NO -5,8 C -4,0 C
27.02.2023 09:00 -2,0 C 87 % 1032 hPa 0,0 l/m 0,0 km/h (0 Bft) N-NO -3,9 C -2,0 C
27.02.2023 10:00 -0,5 C 86 % 1032 hPa 0,0 l/m 0,0 km/h (0 Bft) O -2,6 C -0,5 C
27.02.2023 11:00 0,9 C 83 % 1032 hPa 0,0 l/m 0,0 km/h (0 Bft) O-NO -1,6 C 0,9 C
27.02.2023 12:00 1,8 C 81 % 1032 hPa 0,0 l/m 0,0 km/h (0 Bft) N-NO -1,2 C 1,8 C
27.02.2023 13:00 2,0 C 79 % 1032 hPa 0,5 l/m 0,0 km/h (0 Bft) N-NO -1,3 C 2,0 C
27.02.2023 14:00 1,9 C 78 % 1032 hPa 0,0 l/m 0,0 km/h (0 Bft) O-SO -1,5 C 1,9 C
27.02.2023 15:00 1,9 C 80 % 1032 hPa 0,0 l/m 0,0 km/h (0 Bft) N -1,2 C 1,9 C
27.02.2023 16:00 1,5 C 79 % 1032 hPa 0,0 l/m 0,0 km/h (0 Bft) O-NO -1,7 C 1,5 C
27.02.2023 17:00 0,6 C 79 % 1032 hPa 0,0 l/m 0,0 km/h (0 Bft) O-NO -2,6 C 0,6 C
27.02.2023 18:00 -0,3 C 81 % 1033 hPa 0,0 l/m 0,0 km/h (0 Bft) O -3,1 C -0,3 C
27.02.2023 19:00 -0,7 C 84 % 1033 hPa 0,0 l/m 0,0 km/h (0 Bft) O-SO -3,0 C -0,7 C
27.02.2023 20:00 -1,1 C 85 % 1033 hPa 0,0 l/m 0,0 km/h (0 Bft) O-SO -3,3 C -1,1 C
27.02.2023 21:00 -1,7 C 85 % 1033 hPa 0,0 l/m 0,0 km/h (0 Bft) O -3,8 C -1,7 C
27.02.2023 22:00 -2,0 C 86 % 1033 hPa 0,0 l/m 0,0 km/h (0 Bft) O -4,0 C -2,0 C
27.02.2023 23:00 -3,0 C 86 % 1033 hPa 0,0 l/m 0,0 km/h (0 Bft) O -5,0 C -3,0 C
28.02.2023 00:00 -3,1 C 86 % 1034 hPa 0,0 l/m 0,0 km/h (0 Bft) O-SO -5,1 C -3,1 C
28.02.2023 01:00 -2,7 C 87 % 1034 hPa 0,0 l/m 0,0 km/h (0 Bft) O-SO -4,6 C -2,7 C
28.02.2023 02:00 -2,5 C 87 % 1033 hPa 0,0 l/m 0,0 km/h (0 Bft) O-SO -4,3 C -2,5 C
28.02.2023 03:00 -2,1 C 87 % 1033 hPa 0,0 l/m 0,0 km/h (0 Bft) N-NW -4,0 C -2,1 C
28.02.2023 04:00 -2,4 C 87 % 1033 hPa 0,0 l/m 0,0 km/h (0 Bft) N -4,2 C -2,4 C
28.02.2023 05:00 -2,8 C 86 % 1033 hPa 0,0 l/m 0,0 km/h (0 Bft) NO -4,8 C -2,8 C
28.02.2023 06:00 -3,2 C 87 % 1034 hPa 0,0 l/m 0,0 km/h (0 Bft) NO -5,1 C -3,2 C
28.02.2023 07:00 -3,3 C 87 % 1034 hPa 0,0 l/m 0,0 km/h (0 Bft) W -5,2 C -3,3 C
28.02.2023 08:00 -2,7 C 87 % 1034 hPa 0,0 l/m 0,0 km/h (0 Bft) O -4,5 C -2,7 C
28.02.2023 09:00 -1,0 C 87 % 1034 hPa 0,0 l/m 0,0 km/h (0 Bft) SO -2,9 C -1,0 C
28.02.2023 10:00 1,1 C 81 % 1035 hPa 0,0 l/m 3,5 km/h (1 Bft) O-SO -1,9 C 0,1 C
28.02.2023 11:00 2,7 C 73 % 1035 hPa 0,0 l/m 7,4 km/h (2 Bft) SO -1,7 C 0,9 C
28.02.2023 12:00 2,5 C 70 % 1034 hPa 0,0 l/m 4,6 km/h (1 Bft) SO -2,4 C 1,6 C
28.02.2023 13:00 3,6 C 68 % 1034 hPa 0,0 l/m 1,3 km/h (1 Bft) O -1,7 C 3,4 C
28.02.2023 14:00 4,2 C 67 % 1034 hPa 0,0 l/m 0,0 km/h (0 Bft) O-NO -1,4 C 4,2 C
28.02.2023 15:00 4,2 C 66 % 1033 hPa 0,0 l/m 0,7 km/h (0 Bft) O-SO -1,7 C 4,2 C
28.02.2023 16:00 3,7 C 66 % 1033 hPa 0,0 l/m 0,5 km/h (0 Bft) O-SO -2,1 C 3,7 C
28.02.2023 17:00 1,5 C 69 % 1033 hPa 0,0 l/m 0,0 km/h (0 Bft) O -3,7 C 1,5 C
28.02.2023 18:00 -0,1 C 72 % 1034 hPa 0,0 l/m 0,0 km/h (0 Bft) O-SO -4,5 C -0,1 C
28.02.2023 19:00 -0,8 C 74 % 1034 hPa 0,0 l/m 0,0 km/h (0 Bft) SO -4,8 C -0,8 C
28.02.2023 20:00 -1,5 C 76 % 1034 hPa 0,0 l/m 0,0 km/h (0 Bft) O -5,2 C -1,5 C
28.02.2023 21:00 -2,3 C 77 % 1034 hPa 0,0 l/m 0,0 km/h (0 Bft) O -5,7 C -2,3 C
28.02.2023 22:00 -2,5 C 79 % 1034 hPa 0,0 l/m 0,0 km/h (0 Bft) O-SO -5,7 C -2,5 C
28.02.2023 23:00 -3,0 C 80 % 1034 hPa 0,0 l/m 0,0 km/h (0 Bft) O-SO -6,0 C -3,0 C
01.03.2023 00:00 -3,6 C 80 % 1034 hPa 0,0 l/m 0,0 km/h (0 Bft) O-SO -6,5 C -3,6 C
01.03.2023 01:00 -3,8 C 81 % 1034 hPa 0,0 l/m 0,0 km/h (0 Bft) O-SO -6,6 C -3,8 C
01.03.2023 02:00 -4,1 C 82 % 1033 hPa 0,0 l/m 0,0 km/h (0 Bft) O-SO -6,8 C -4,1 C
01.03.2023 03:00 -4,7 C 82 % 1033 hPa 0,0 l/m 0,0 km/h (0 Bft) O-SO -7,3 C -4,7 C
01.03.2023 04:00 -5,2 C 83 % 1033 hPa 0,0 l/m 0,0 km/h (0 Bft) O-SO -7,6 C -5,2 C
01.03.2023 05:00 -5,5 C 84 % 1032 hPa 0,0 l/m 0,0 km/h (0 Bft) O-SO -7,8 C -5,5 C
01.03.2023 06:00 -5,7 C 84 % 1032 hPa 0,0 l/m 0,0 km/h (0 Bft) O-SO -8,0 C -5,7 C
01.03.2023 07:00 -6,0 C 85 % 1032 hPa 0,0 l/m 0,0 km/h (0 Bft) O-SO -8,1 C -6,0 C
01.03.2023 08:00 -5,0 C 86 % 1032 hPa 0,0 l/m 0,0 km/h (0 Bft) O-SO -6,9 C -5,0 C
01.03.2023 09:00 -2,0 C 87 % 1032 hPa 0,0 l/m 0,3 km/h (0 Bft) O-NO -3,9 C -2,0 C
01.03.2023 10:00 0,6 C 83 % 1032 hPa 0,0 l/m 1,1 km/h (1 Bft) NW -2,0 C 0,6 C
01.03.2023 11:00 2,1 C 77 % 1031 hPa 0,0 l/m 0,6 km/h (0 Bft) NO -1,5 C 2,1 C
01.03.2023 12:00 3,3 C 74 % 1031 hPa 0,0 l/m 2,9 km/h (1 Bft) W-SW -1,0 C 2,8 C
01.03.2023 13:00 4,4 C 71 % 1030 hPa 0,0 l/m 0,0 km/h (0 Bft) SO -0,5 C 4,4 C
01.03.2023 14:00 5,2 C 67 % 1030 hPa 0,0 l/m 0,7 km/h (0 Bft) N-NO -0,5 C 5,2 C
01.03.2023 15:00 5,5 C 64 % 1030 hPa 0,0 l/m 1,6 km/h (1 Bft) O-NO -0,7 C 5,1 C
01.03.2023 16:00 5,1 C 63 % 1029 hPa 0,0 l/m 1,7 km/h (1 Bft) O -1,3 C 4,6 C
01.03.2023 17:00 3,4 C 64 % 1029 hPa 0,0 l/m 0,0 km/h (0 Bft) W-NW -2,7 C 3,4 C
01.03.2023 18:00 1,5 C 69 % 1030 hPa 0,0 l/m 0,0 km/h (0 Bft) O -3,6 C 1,5 C
01.03.2023 19:00 0,4 C 71 % 1030 hPa 0,0 l/m 0,0 km/h (0 Bft) O -4,3 C 0,4 C
01.03.2023 20:00 0,0 C 73 % 1029 hPa 0,0 l/m 0,0 km/h (0 Bft) NO -4,3 C 0,0 C
01.03.2023 21:00 -0,1 C 74 % 1029 hPa 0,0 l/m 0,0 km/h (0 Bft) SW -4,2 C -0,1 C
01.03.2023 22:00 -0,3 C 74 % 1029 hPa 0,0 l/m 0,0 km/h (0 Bft) O-SO -4,3 C -0,3 C
01.03.2023 23:00 -0,7 C 74 % 1029 hPa 0,0 l/m 0,0 km/h (0 Bft) O-SO -4,7 C -0,7 C
02.03.2023 00:00 -1,1 C 75 % 1028 hPa 0,0 l/m 0,0 km/h (0 Bft) O -5,0 C -1,1 C
02.03.2023 01:00 -0,6 C 75 % 1028 hPa 0,0 l/m 0,0 km/h (0 Bft) SW -4,6 C -0,6 C
02.03.2023 02:00 -0,6 C 73 % 1028 hPa 0,0 l/m 0,0 km/h (0 Bft) SO -4,9 C -0,6 C
02.03.2023 03:00 -1,9 C 75 % 1027 hPa 0,0 l/m 0,0 km/h (0 Bft) O-SO -5,7 C -1,9 C
02.03.2023 04:00 -2,5 C 76 % 1027 hPa 0,0 l/m 0,0 km/h (0 Bft) SO -6,1 C -2,5 C
02.03.2023 05:00 -2,7 C 78 % 1027 hPa 0,0 l/m 0,0 km/h (0 Bft) O-SO -6,1 C -2,7 C
02.03.2023 06:00 -3,2 C 79 % 1027 hPa 0,0 l/m 0,0 km/h (0 Bft) SO -6,4 C -3,2 C
02.03.2023 07:00 -3,0 C 79 % 1028 hPa 0,0 l/m 0,0 km/h (0 Bft) NO -6,1 C -3,0 C
02.03.2023 08:00 -2,5 C 80 % 1028 hPa 0,0 l/m 0,0 km/h (0 Bft) O-SO -5,5 C -2,5 C
02.03.2023 09:00 -0,4 C 79 % 1028 hPa 0,0 l/m 0,0 km/h (0 Bft) N-NO -3,5 C -0,4 C
02.03.2023 10:00 2,0 C 76 % 1027 hPa 0,0 l/m 0,0 km/h (0 Bft) N -1,9 C 2,0 C
02.03.2023 11:00 3,8 C 71 % 1027 hPa 0,0 l/m 0,5 km/h (0 Bft) N-NW -1,0 C 3,8 C
02.03.2023 12:00 5,2 C 66 % 1027 hPa 0,0 l/m 0,8 km/h (0 Bft) N-NO -0,6 C 5,2 C
02.03.2023 13:00 7,0 C 59 % 1026 hPa 0,0 l/m 1,2 km/h (1 Bft) NO -0,4 C 6,9 C
02.03.2023 14:00 8,1 C 56 % 1026 hPa 0,0 l/m 0,0 km/h (0 Bft) O -0,1 C 8,1 C
02.03.2023 15:00 8,4 C 53 % 1025 hPa 0,0 l/m 2,0 km/h (1 Bft) N -0,5 C 8,1 C
02.03.2023 16:00 8,1 C 54 % 1025 hPa 0,0 l/m 0,0 km/h (0 Bft) N-NW -0,6 C 8,1 C
02.03.2023 17:00 6,1 C 59 % 1025 hPa 0,0 l/m 0,0 km/h (0 Bft) O-NO -1,4 C 6,1 C
02.03.2023 18:00 3,6 C 71 % 1025 hPa 0,0 l/m 5,5 km/h (1 Bft) N -1,2 C 2,0 C
02.03.2023 19:00 1,8 C 82 % 1026 hPa 0,0 l/m 6,4 km/h (2 Bft) N -1,0 C 0,1 C
02.03.2023 20:00 0,6 C 86 % 1026 hPa 0,0 l/m 4,3 km/h (1 Bft) N-NO -1,5 C -1,2 C
02.03.2023 21:00 0,3 C 87 % 1026 hPa 0,0 l/m 0,0 km/h (0 Bft) N-NO -1,6 C 0,3 C
02.03.2023 22:00 0,1 C 88 % 1026 hPa 0,0 l/m 0,0 km/h (0 Bft) N-NO -1,6 C 0,1 C
02.03.2023 23:00 0,0 C 89 % 1026 hPa 0,0 l/m 0,0 km/h (0 Bft) N -1,6 C 0,0 C
03.03.2023 00:00 -0,1 C 89 % 1026 hPa 0,0 l/m 0,0 km/h (0 Bft) N -1,7 C -0,1 C
03.03.2023 01:00 -0,4 C 89 % 1026 hPa 0,0 l/m 0,1 km/h (0 Bft) N -2,0 C -0,4 C
03.03.2023 02:00 -0,9 C 90 % 1026 hPa 0,0 l/m 0,0 km/h (0 Bft) N -2,3 C -0,9 C
03.03.2023 03:00 -1,3 C 90 % 1026 hPa 0,0 l/m 0,0 km/h (0 Bft) N -2,7 C -1,3 C
03.03.2023 04:00 -1,6 C 91 % 1026 hPa 0,0 l/m 0,0 km/h (0 Bft) N -3,0 C -1,6 C
03.03.2023 05:00 -1,7 C 91 % 1026 hPa 0,0 l/m 0,0 km/h (0 Bft) N -3,0 C -1,7 C
03.03.2023 06:00 -2,0 C 91 % 1027 hPa 0,0 l/m 1,7 km/h (1 Bft) N -3,2 C -2,6 C
03.03.2023 07:00 -2,1 C 91 % 1027 hPa 0,0 l/m 0,0 km/h (0 Bft) N -3,4 C -2,1 C
Min-Datum _ 27.02.23 02.03.23 02.03.23 - 03.03.23 - 27.02.23 27.02.23
_ Min-Zeit 02:13 16:03 18:03 - 07:03 - 01:23 02:13
Minimum _ -6,2 C 53 % 1025 hPa - 0,0 km/h (0 Bft) - -8,5 C -6,2 C
Max-Datum _ 02.03.23 03.03.23 28.02.23 27.02.23 02.03.23 - 02.03.23 02.03.23
_ Max-Zeit 16:03 07:03 11:03 13:43 19:03 - 14:33 16:03
Maximum _ 8,6 C 91 % 1035 hPa 0,5 l/m 16,6 km/h
N (3 Bft)
- -0,0 C 8,6 C
Durchschnitt _ -0,5 C 79 % 1030 hPa #0,5 l/m 0,5 km/h (0 Bft) O-SO -3,8 C -0,6 C